sensor_id;sensor_type;location;lat;lon;timestamp;P1;durP1;ratioP1;P2;durP2;ratioP2
60999;SDS011;46879;45.658;11.814;2023-07-13T00:04:49;11.98;;;2.90;;
60999;SDS011;46879;45.658;11.814;2023-07-13T00:09:50;4.13;;;2.50;;
60999;SDS011;46879;45.658;11.814;2023-07-13T00:14:50;4.43;;;3.05;;
60999;SDS011;46879;45.658;11.814;2023-07-13T00:19:51;5.38;;;2.53;;
60999;SDS011;46879;45.658;11.814;2023-07-13T00:24:52;7.72;;;2.78;;
60999;SDS011;46879;45.658;11.814;2023-07-13T00:29:56;5.50;;;2.53;;
60999;SDS011;46879;45.658;11.814;2023-07-13T00:34:56;5.53;;;2.38;;
60999;SDS011;46879;45.658;11.814;2023-07-13T00:39:58;7.43;;;3.08;;
60999;SDS011;46879;45.658;11.814;2023-07-13T00:50:12;4.10;;;2.17;;
60999;SDS011;46879;45.658;11.814;2023-07-13T00:55:16;6.03;;;2.50;;
60999;SDS011;46879;45.658;11.814;2023-07-13T01:00:17;7.85;;;2.60;;
60999;SDS011;46879;45.658;11.814;2023-07-13T01:05:21;5.90;;;2.38;;
60999;SDS011;46879;45.658;11.814;2023-07-13T01:10:23;6.65;;;2.38;;
60999;SDS011;46879;45.658;11.814;2023-07-13T01:20:34;4.47;;;2.35;;
60999;SDS011;46879;45.658;11.814;2023-07-13T01:25:36;5.05;;;2.40;;
60999;SDS011;46879;45.658;11.814;2023-07-13T01:30:38;4.88;;;2.40;;
60999;SDS011;46879;45.658;11.814;2023-07-13T01:35:40;4.10;;;2.03;;
60999;SDS011;46879;45.658;11.814;2023-07-13T01:40:41;3.28;;;2.20;;
60999;SDS011;46879;45.658;11.814;2023-07-13T01:45:42;2.45;;;1.75;;
60999;SDS011;46879;45.658;11.814;2023-07-13T01:50:44;4.35;;;1.92;;
60999;SDS011;46879;45.658;11.814;2023-07-13T01:55:44;4.68;;;1.90;;
60999;SDS011;46879;45.658;11.814;2023-07-13T02:00:47;3.58;;;1.90;;
60999;SDS011;46879;45.658;11.814;2023-07-13T02:05:49;3.55;;;2.22;;
60999;SDS011;46879;45.658;11.814;2023-07-13T02:10:50;1.98;;;1.77;;
60999;SDS011;46879;45.658;11.814;2023-07-13T02:15:51;2.88;;;1.80;;
60999;SDS011;46879;45.658;11.814;2023-07-13T02:20:51;5.28;;;1.90;;
60999;SDS011;46879;45.658;11.814;2023-07-13T02:25:55;3.80;;;2.03;;
60999;SDS011;46879;45.658;11.814;2023-07-13T02:31:03;2.92;;;1.73;;
60999;SDS011;46879;45.658;11.814;2023-07-13T02:36:09;3.95;;;1.55;;
60999;SDS011;46879;45.658;11.814;2023-07-13T02:41:11;4.03;;;1.65;;
60999;SDS011;46879;45.658;11.814;2023-07-13T02:46:12;3.45;;;1.92;;
60999;SDS011;46879;45.658;11.814;2023-07-13T02:51:13;2.50;;;1.60;;
60999;SDS011;46879;45.658;11.814;2023-07-13T02:56:13;2.10;;;1.60;;
60999;SDS011;46879;45.658;11.814;2023-07-13T03:01:14;1.58;;;1.45;;
60999;SDS011;46879;45.658;11.814;2023-07-13T03:06:18;3.03;;;1.75;;
60999;SDS011;46879;45.658;11.814;2023-07-13T03:11:20;2.80;;;1.60;;
60999;SDS011;46879;45.658;11.814;2023-07-13T03:16:20;2.25;;;1.48;;
60999;SDS011;46879;45.658;11.814;2023-07-13T03:21:21;2.40;;;1.92;;
60999;SDS011;46879;45.658;11.814;2023-07-13T03:26:22;2.88;;;1.60;;
60999;SDS011;46879;45.658;11.814;2023-07-13T03:31:24;1.70;;;1.50;;
60999;SDS011;46879;45.658;11.814;2023-07-13T03:36:29;2.08;;;1.55;;
60999;SDS011;46879;45.658;11.814;2023-07-13T03:41:30;2.85;;;1.55;;
60999;SDS011;46879;45.658;11.814;2023-07-13T03:46:31;9.70;;;1.83;;
60999;SDS011;46879;45.658;11.814;2023-07-13T03:51:33;1.48;;;1.33;;
60999;SDS011;46879;45.658;11.814;2023-07-13T03:56:34;2.17;;;1.30;;
60999;SDS011;46879;45.658;11.814;2023-07-13T04:01:34;2.67;;;1.30;;
60999;SDS011;46879;45.658;11.814;2023-07-13T04:06:35;4.40;;;1.65;;
60999;SDS011;46879;45.658;11.814;2023-07-13T04:11:36;1.40;;;1.30;;
60999;SDS011;46879;45.658;11.814;2023-07-13T04:16:36;1.70;;;1.33;;
60999;SDS011;46879;45.658;11.814;2023-07-13T04:21:37;1.55;;;1.20;;
60999;SDS011;46879;45.658;11.814;2023-07-13T04:26:37;2.30;;;1.15;;
60999;SDS011;46879;45.658;11.814;2023-07-13T04:31:39;1.20;;;1.10;;
60999;SDS011;46879;45.658;11.814;2023-07-13T04:36:40;1.50;;;1.23;;
60999;SDS011;46879;45.658;11.814;2023-07-13T04:41:40;2.03;;;1.17;;
60999;SDS011;46879;45.658;11.814;2023-07-13T04:46:41;1.52;;;1.40;;
60999;SDS011;46879;45.658;11.814;2023-07-13T04:51:41;3.20;;;1.65;;
60999;SDS011;46879;45.658;11.814;2023-07-13T04:56:42;1.80;;;1.45;;
60999;SDS011;46879;45.658;11.814;2023-07-13T05:01:42;1.65;;;1.40;;
60999;SDS011;46879;45.658;11.814;2023-07-13T05:06:43;1.88;;;1.55;;
60999;SDS011;46879;45.658;11.814;2023-07-13T05:11:43;1.77;;;1.05;;
60999;SDS011;46879;45.658;11.814;2023-07-13T05:16:44;2.70;;;1.45;;
60999;SDS011;46879;45.658;11.814;2023-07-13T05:21:45;1.90;;;1.30;;
60999;SDS011;46879;45.658;11.814;2023-07-13T05:26:45;1.77;;;1.20;;
60999;SDS011;46879;45.658;11.814;2023-07-13T05:31:46;1.85;;;1.52;;
60999;SDS011;46879;45.658;11.814;2023-07-13T05:36:47;5.45;;;1.40;;
60999;SDS011;46879;45.658;11.814;2023-07-13T05:41:49;5.47;;;1.42;;
60999;SDS011;46879;45.658;11.814;2023-07-13T05:46:49;6.28;;;1.27;;
60999;SDS011;46879;45.658;11.814;2023-07-13T05:51:50;3.70;;;1.30;;
60999;SDS011;46879;45.658;11.814;2023-07-13T05:56:50;2.25;;;1.30;;
60999;SDS011;46879;45.658;11.814;2023-07-13T06:01:51;3.80;;;1.50;;
60999;SDS011;46879;45.658;11.814;2023-07-13T06:06:54;5.75;;;1.27;;
60999;SDS011;46879;45.658;11.814;2023-07-13T06:11:55;3.10;;;1.08;;
60999;SDS011;46879;45.658;11.814;2023-07-13T06:16:56;7.82;;;1.60;;
60999;SDS011;46879;45.658;11.814;2023-07-13T06:21:56;11.18;;;2.53;;
60999;SDS011;46879;45.658;11.814;2023-07-13T06:26:58;10.27;;;2.58;;
60999;SDS011;46879;45.658;11.814;2023-07-13T06:31:59;15.80;;;2.50;;
60999;SDS011;46879;45.658;11.814;2023-07-13T06:36:59;8.95;;;2.10;;
60999;SDS011;46879;45.658;11.814;2023-07-13T06:42:00;6.78;;;2.03;;
60999;SDS011;46879;45.658;11.814;2023-07-13T06:47:00;8.57;;;2.58;;
60999;SDS011;46879;45.658;11.814;2023-07-13T06:52:01;13.55;;;2.13;;
60999;SDS011;46879;45.658;11.814;2023-07-13T06:57:02;4.90;;;2.28;;
60999;SDS011;46879;45.658;11.814;2023-07-13T07:02:03;8.73;;;1.83;;
60999;SDS011;46879;45.658;11.814;2023-07-13T07:07:04;9.43;;;2.10;;
60999;SDS011;46879;45.658;11.814;2023-07-13T07:12:05;6.75;;;1.98;;
60999;SDS011;46879;45.658;11.814;2023-07-13T07:17:06;6.32;;;2.45;;
60999;SDS011;46879;45.658;11.814;2023-07-13T07:22:07;7.05;;;1.90;;
60999;SDS011;46879;45.658;11.814;2023-07-13T07:27:07;5.45;;;2.03;;
60999;SDS011;46879;45.658;11.814;2023-07-13T07:32:08;6.25;;;2.13;;
60999;SDS011;46879;45.658;11.814;2023-07-13T07:37:09;8.45;;;1.90;;
60999;SDS011;46879;45.658;11.814;2023-07-13T07:42:12;9.60;;;1.70;;
60999;SDS011;46879;45.658;11.814;2023-07-13T07:47:13;7.47;;;1.60;;
60999;SDS011;46879;45.658;11.814;2023-07-13T07:52:13;2.90;;;1.38;;
60999;SDS011;46879;45.658;11.814;2023-07-13T07:57:14;8.55;;;1.52;;
60999;SDS011;46879;45.658;11.814;2023-07-13T08:02:14;8.10;;;1.73;;
60999;SDS011;46879;45.658;11.814;2023-07-13T08:07:15;8.45;;;1.50;;
60999;SDS011;46879;45.658;11.814;2023-07-13T08:12:16;4.65;;;1.30;;
60999;SDS011;46879;45.658;11.814;2023-07-13T08:17:16;7.60;;;1.85;;
60999;SDS011;46879;45.658;11.814;2023-07-13T08:22:17;3.85;;;1.40;;
60999;SDS011;46879;45.658;11.814;2023-07-13T08:27:17;4.95;;;1.25;;
60999;SDS011;46879;45.658;11.814;2023-07-13T08:32:20;6.20;;;1.50;;
60999;SDS011;46879;45.658;11.814;2023-07-13T08:37:22;4.45;;;1.60;;
60999;SDS011;46879;45.658;11.814;2023-07-13T08:42:36;3.53;;;1.50;;
60999;SDS011;46879;45.658;11.814;2023-07-13T08:48:02;3.92;;;1.52;;
60999;SDS011;46879;45.658;11.814;2023-07-13T08:53:28;5.15;;;1.60;;
60999;SDS011;46879;45.658;11.814;2023-07-13T08:58:41;2.30;;;1.20;;
60999;SDS011;46879;45.658;11.814;2023-07-13T09:19:49;4.88;;;1.88;;
60999;SDS011;46879;45.658;11.814;2023-07-13T09:30:38;3.63;;;1.52;;
60999;SDS011;46879;45.658;11.814;2023-07-13T09:42:29;2.67;;;1.15;;
60999;SDS011;46879;45.658;11.814;2023-07-13T09:47:20;3.97;;;1.80;;
60999;SDS011;46879;45.658;11.814;2023-07-13T09:52:27;5.25;;;1.73;;
60999;SDS011;46879;45.658;11.814;2023-07-13T09:57:46;3.63;;;1.35;;
60999;SDS011;46879;45.658;11.814;2023-07-13T10:02:50;3.92;;;1.60;;
60999;SDS011;46879;45.658;11.814;2023-07-13T10:08:00;3.28;;;1.52;;
60999;SDS011;46879;45.658;11.814;2023-07-13T10:13:01;2.78;;;1.52;;
60999;SDS011;46879;45.658;11.814;2023-07-13T10:18:04;2.45;;;1.20;;
60999;SDS011;46879;45.658;11.814;2023-07-13T10:23:05;2.58;;;1.45;;
60999;SDS011;46879;45.658;11.814;2023-07-13T10:28:35;6.88;;;1.70;;
60999;SDS011;46879;45.658;11.814;2023-07-13T10:33:38;2.65;;;1.55;;
60999;SDS011;46879;45.658;11.814;2023-07-13T10:38:38;2.28;;;1.30;;
60999;SDS011;46879;45.658;11.814;2023-07-13T10:43:45;3.92;;;1.75;;
60999;SDS011;46879;45.658;11.814;2023-07-13T10:48:52;2.85;;;1.33;;
60999;SDS011;46879;45.658;11.814;2023-07-13T10:59:23;2.60;;;1.10;;
60999;SDS011;46879;45.658;11.814;2023-07-13T11:15:03;3.40;;;1.52;;
60999;SDS011;46879;45.658;11.814;2023-07-13T11:25:31;2.80;;;1.27;;
60999;SDS011;46879;45.658;11.814;2023-07-13T11:30:46;4.18;;;1.50;;
60999;SDS011;46879;45.658;11.814;2023-07-13T11:36:03;2.92;;;1.40;;
60999;SDS011;46879;45.658;11.814;2023-07-13T11:41:17;2.78;;;1.60;;
60999;SDS011;46879;45.658;11.814;2023-07-13T11:46:24;4.20;;;1.73;;
60999;SDS011;46879;45.658;11.814;2023-07-13T11:51:30;4.27;;;1.50;;
60999;SDS011;46879;45.658;11.814;2023-07-13T11:56:34;5.10;;;1.57;;
60999;SDS011;46879;45.658;11.814;2023-07-13T12:01:36;4.75;;;1.90;;
60999;SDS011;46879;45.658;11.814;2023-07-13T12:06:45;12.77;;;2.17;;
60999;SDS011;46879;45.658;11.814;2023-07-13T12:11:46;3.35;;;1.75;;
60999;SDS011;46879;45.658;11.814;2023-07-13T12:16:47;3.70;;;2.00;;
60999;SDS011;46879;45.658;11.814;2023-07-13T12:21:49;7.07;;;2.10;;
60999;SDS011;46879;45.658;11.814;2023-07-13T12:26:54;7.30;;;2.10;;
60999;SDS011;46879;45.658;11.814;2023-07-13T12:32:07;12.95;;;2.90;;
60999;SDS011;46879;45.658;11.814;2023-07-13T12:37:09;9.30;;;2.88;;
60999;SDS011;46879;45.658;11.814;2023-07-13T12:47:27;9.70;;;2.97;;
60999;SDS011;46879;45.658;11.814;2023-07-13T12:52:30;44.53;;;5.43;;
60999;SDS011;46879;45.658;11.814;2023-07-13T12:57:38;32.15;;;5.82;;
60999;SDS011;46879;45.658;11.814;2023-07-13T13:07:41;23.23;;;3.95;;
60999;SDS011;46879;45.658;11.814;2023-07-13T13:12:42;26.10;;;4.85;;
60999;SDS011;46879;45.658;11.814;2023-07-13T13:17:42;16.67;;;3.72;;
60999;SDS011;46879;45.658;11.814;2023-07-13T13:22:43;18.38;;;4.20;;
60999;SDS011;46879;45.658;11.814;2023-07-13T13:27:44;20.90;;;4.97;;
60999;SDS011;46879;45.658;11.814;2023-07-13T13:32:47;21.63;;;4.72;;
60999;SDS011;46879;45.658;11.814;2023-07-13T13:37:48;27.13;;;4.50;;
60999;SDS011;46879;45.658;11.814;2023-07-13T13:42:50;19.92;;;4.22;;
60999;SDS011;46879;45.658;11.814;2023-07-13T13:47:52;17.75;;;4.00;;
60999;SDS011;46879;45.658;11.814;2023-07-13T13:52:54;62.22;;;6.60;;
60999;SDS011;46879;45.658;11.814;2023-07-13T13:57:55;42.63;;;5.90;;
60999;SDS011;46879;45.658;11.814;2023-07-13T14:02:55;27.73;;;5.22;;
60999;SDS011;46879;45.658;11.814;2023-07-13T14:07:57;23.00;;;4.90;;
60999;SDS011;46879;45.658;11.814;2023-07-13T14:12:58;18.33;;;5.05;;
60999;SDS011;46879;45.658;11.814;2023-07-13T14:17:59;25.58;;;4.15;;
60999;SDS011;46879;45.658;11.814;2023-07-13T14:22:59;14.80;;;3.92;;
60999;SDS011;46879;45.658;11.814;2023-07-13T14:28:04;18.85;;;4.15;;
60999;SDS011;46879;45.658;11.814;2023-07-13T14:33:28;21.13;;;4.30;;
60999;SDS011;46879;45.658;11.814;2023-07-13T14:38:30;13.15;;;3.97;;
60999;SDS011;46879;45.658;11.814;2023-07-13T14:43:30;20.80;;;4.40;;
60999;SDS011;46879;45.658;11.814;2023-07-13T14:48:31;6.95;;;3.50;;
60999;SDS011;46879;45.658;11.814;2023-07-13T14:53:31;6.80;;;3.17;;
60999;SDS011;46879;45.658;11.814;2023-07-13T14:58:32;11.50;;;3.33;;
60999;SDS011;46879;45.658;11.814;2023-07-13T15:03:32;14.38;;;3.30;;
60999;SDS011;46879;45.658;11.814;2023-07-13T15:08:33;5.90;;;3.00;;
60999;SDS011;46879;45.658;11.814;2023-07-13T15:13:34;8.50;;;2.70;;
60999;SDS011;46879;45.658;11.814;2023-07-13T15:18:35;8.15;;;2.63;;
60999;SDS011;46879;45.658;11.814;2023-07-13T15:23:42;9.98;;;3.78;;
60999;SDS011;46879;45.658;11.814;2023-07-13T15:29:05;7.43;;;2.53;;
60999;SDS011;46879;45.658;11.814;2023-07-13T15:34:14;6.65;;;2.90;;
60999;SDS011;46879;45.658;11.814;2023-07-13T15:39:18;10.32;;;2.63;;
60999;SDS011;46879;45.658;11.814;2023-07-13T15:44:21;14.15;;;2.63;;
60999;SDS011;46879;45.658;11.814;2023-07-13T15:49:30;7.25;;;2.45;;
60999;SDS011;46879;45.658;11.814;2023-07-13T15:54:31;7.47;;;3.28;;
60999;SDS011;46879;45.658;11.814;2023-07-13T15:59:32;9.60;;;3.28;;
60999;SDS011;46879;45.658;11.814;2023-07-13T16:04:32;8.00;;;2.70;;
60999;SDS011;46879;45.658;11.814;2023-07-13T16:09:33;8.80;;;2.88;;
60999;SDS011;46879;45.658;11.814;2023-07-13T16:14:33;7.65;;;2.92;;
60999;SDS011;46879;45.658;11.814;2023-07-13T16:19:34;11.88;;;2.67;;
60999;SDS011;46879;45.658;11.814;2023-07-13T16:24:34;13.88;;;3.88;;
60999;SDS011;46879;45.658;11.814;2023-07-13T16:29:35;14.90;;;3.28;;
60999;SDS011;46879;45.658;11.814;2023-07-13T16:34:36;12.48;;;2.95;;
60999;SDS011;46879;45.658;11.814;2023-07-13T16:39:42;7.45;;;2.80;;
60999;SDS011;46879;45.658;11.814;2023-07-13T16:44:57;7.13;;;2.80;;
60999;SDS011;46879;45.658;11.814;2023-07-13T16:49:58;9.27;;;2.60;;
60999;SDS011;46879;45.658;11.814;2023-07-13T16:54:58;5.53;;;2.78;;
60999;SDS011;46879;45.658;11.814;2023-07-13T16:59:59;5.25;;;2.15;;
60999;SDS011;46879;45.658;11.814;2023-07-13T17:05:02;6.07;;;2.47;;
60999;SDS011;46879;45.658;11.814;2023-07-13T17:10:05;6.18;;;2.40;;
60999;SDS011;46879;45.658;11.814;2023-07-13T17:15:17;6.97;;;2.67;;
60999;SDS011;46879;45.658;11.814;2023-07-13T17:20:25;6.57;;;2.40;;
60999;SDS011;46879;45.658;11.814;2023-07-13T17:25:29;4.60;;;2.15;;
60999;SDS011;46879;45.658;11.814;2023-07-13T17:30:30;4.75;;;2.10;;
60999;SDS011;46879;45.658;11.814;2023-07-13T17:35:32;5.90;;;2.50;;
60999;SDS011;46879;45.658;11.814;2023-07-13T17:40:35;7.53;;;2.30;;
60999;SDS011;46879;45.658;11.814;2023-07-13T17:45:38;15.35;;;2.70;;
60999;SDS011;46879;45.658;11.814;2023-07-13T17:50:40;3.65;;;2.05;;
60999;SDS011;46879;45.658;11.814;2023-07-13T17:55:44;8.80;;;2.33;;
60999;SDS011;46879;45.658;11.814;2023-07-13T18:00:45;6.50;;;2.58;;
60999;SDS011;46879;45.658;11.814;2023-07-13T18:05:49;5.47;;;2.10;;
60999;SDS011;46879;45.658;11.814;2023-07-13T18:10:50;8.57;;;2.58;;
60999;SDS011;46879;45.658;11.814;2023-07-13T18:15:52;6.00;;;2.53;;
60999;SDS011;46879;45.658;11.814;2023-07-13T18:20:53;8.73;;;2.35;;
60999;SDS011;46879;45.658;11.814;2023-07-13T18:25:54;6.25;;;2.72;;
60999;SDS011;46879;45.658;11.814;2023-07-13T18:30:55;6.22;;;2.45;;
60999;SDS011;46879;45.658;11.814;2023-07-13T18:35:58;6.50;;;2.55;;
60999;SDS011;46879;45.658;11.814;2023-07-13T18:41:00;8.27;;;2.97;;
60999;SDS011;46879;45.658;11.814;2023-07-13T18:46:03;14.75;;;4.32;;
60999;SDS011;46879;45.658;11.814;2023-07-13T18:51:33;10.48;;;4.13;;
60999;SDS011;46879;45.658;11.814;2023-07-13T18:56:34;7.28;;;3.50;;
60999;SDS011;46879;45.658;11.814;2023-07-13T19:01:36;7.82;;;3.72;;
60999;SDS011;46879;45.658;11.814;2023-07-13T19:06:36;9.38;;;4.28;;
60999;SDS011;46879;45.658;11.814;2023-07-13T19:11:37;7.65;;;4.03;;
60999;SDS011;46879;45.658;11.814;2023-07-13T19:16:38;9.10;;;3.30;;
60999;SDS011;46879;45.658;11.814;2023-07-13T19:21:39;5.80;;;3.15;;
60999;SDS011;46879;45.658;11.814;2023-07-13T19:26:41;6.53;;;3.08;;
60999;SDS011;46879;45.658;11.814;2023-07-13T19:31:42;9.05;;;3.55;;
60999;SDS011;46879;45.658;11.814;2023-07-13T19:36:42;7.03;;;3.20;;
60999;SDS011;46879;45.658;11.814;2023-07-13T19:41:43;8.25;;;3.13;;
60999;SDS011;46879;45.658;11.814;2023-07-13T19:46:44;8.45;;;3.47;;
60999;SDS011;46879;45.658;11.814;2023-07-13T19:51:44;7.13;;;3.67;;
60999;SDS011;46879;45.658;11.814;2023-07-13T19:56:47;13.75;;;3.92;;
60999;SDS011;46879;45.658;11.814;2023-07-13T20:01:48;5.55;;;3.05;;
60999;SDS011;46879;45.658;11.814;2023-07-13T20:06:49;16.13;;;4.20;;
60999;SDS011;46879;45.658;11.814;2023-07-13T20:11:49;10.13;;;3.20;;
60999;SDS011;46879;45.658;11.814;2023-07-13T20:17:01;7.45;;;2.97;;
60999;SDS011;46879;45.658;11.814;2023-07-13T20:22:08;7.65;;;3.28;;
60999;SDS011;46879;45.658;11.814;2023-07-13T20:27:11;8.68;;;3.10;;
60999;SDS011;46879;45.658;11.814;2023-07-13T20:32:14;6.28;;;3.17;;
60999;SDS011;46879;45.658;11.814;2023-07-13T20:42:32;4.87;;;2.97;;
60999;SDS011;46879;45.658;11.814;2023-07-13T20:47:33;8.43;;;2.85;;
60999;SDS011;46879;45.658;11.814;2023-07-13T20:52:33;5.80;;;3.10;;
60999;SDS011;46879;45.658;11.814;2023-07-13T20:57:34;5.72;;;2.88;;
60999;SDS011;46879;45.658;11.814;2023-07-13T21:02:36;3.60;;;2.50;;
60999;SDS011;46879;45.658;11.814;2023-07-13T21:07:37;3.60;;;2.40;;
60999;SDS011;46879;45.658;11.814;2023-07-13T21:12:38;5.93;;;2.60;;
60999;SDS011;46879;45.658;11.814;2023-07-13T21:17:39;6.40;;;2.60;;
60999;SDS011;46879;45.658;11.814;2023-07-13T21:22:40;5.45;;;2.67;;
60999;SDS011;46879;45.658;11.814;2023-07-13T21:27:41;6.50;;;2.13;;
60999;SDS011;46879;45.658;11.814;2023-07-13T21:32:41;5.75;;;2.00;;
60999;SDS011;46879;45.658;11.814;2023-07-13T21:37:44;11.18;;;2.38;;
60999;SDS011;46879;45.658;11.814;2023-07-13T21:42:45;4.63;;;1.80;;
60999;SDS011;46879;45.658;11.814;2023-07-13T21:47:47;6.10;;;1.98;;
60999;SDS011;46879;45.658;11.814;2023-07-13T21:52:51;4.85;;;1.80;;
60999;SDS011;46879;45.658;11.814;2023-07-13T21:57:52;6.78;;;2.00;;
60999;SDS011;46879;45.658;11.814;2023-07-13T22:02:55;4.68;;;1.92;;
60999;SDS011;46879;45.658;11.814;2023-07-13T22:07:59;7.60;;;1.98;;
60999;SDS011;46879;45.658;11.814;2023-07-13T22:12:59;7.72;;;2.50;;
60999;SDS011;46879;45.658;11.814;2023-07-13T22:18:02;16.90;;;2.33;;
60999;SDS011;46879;45.658;11.814;2023-07-13T22:23:14;7.97;;;2.30;;
60999;SDS011;46879;45.658;11.814;2023-07-13T22:28:22;6.18;;;1.98;;
60999;SDS011;46879;45.658;11.814;2023-07-13T22:33:26;3.92;;;2.13;;
60999;SDS011;46879;45.658;11.814;2023-07-13T22:38:27;5.32;;;2.35;;
60999;SDS011;46879;45.658;11.814;2023-07-13T22:43:31;6.60;;;1.60;;
60999;SDS011;46879;45.658;11.814;2023-07-13T22:48:42;4.47;;;1.67;;
60999;SDS011;46879;45.658;11.814;2023-07-13T22:53:51;9.27;;;2.05;;
60999;SDS011;46879;45.658;11.814;2023-07-13T22:58:52;2.30;;;1.40;;
60999;SDS011;46879;45.658;11.814;2023-07-13T23:03:54;2.35;;;1.60;;
60999;SDS011;46879;45.658;11.814;2023-07-13T23:08:56;3.15;;;1.50;;
60999;SDS011;46879;45.658;11.814;2023-07-13T23:13:57;2.33;;;1.58;;
60999;SDS011;46879;45.658;11.814;2023-07-13T23:19:00;5.07;;;1.58;;
60999;SDS011;46879;45.658;11.814;2023-07-13T23:24:02;1.95;;;1.35;;
60999;SDS011;46879;45.658;11.814;2023-07-13T23:29:02;3.17;;;1.40;;
60999;SDS011;46879;45.658;11.814;2023-07-13T23:34:04;2.10;;;1.40;;
60999;SDS011;46879;45.658;11.814;2023-07-13T23:39:11;1.95;;;1.30;;
60999;SDS011;46879;45.658;11.814;2023-07-13T23:44:16;3.60;;;1.40;;
60999;SDS011;46879;45.658;11.814;2023-07-13T23:49:27;5.43;;;1.60;;
60999;SDS011;46879;45.658;11.814;2023-07-13T23:54:31;3.88;;;1.52;;
60999;SDS011;46879;45.658;11.814;2023-07-13T23:59:33;4.15;;;1.42;;
